ASIAQ
Weather Now
GREENLAND SURVEY
Sorting:
| Location |
Updated [WGT/WGST] |
Temperature [°C] |
Wind [m/s] |
Air pressure [hPa] |
Relative humidity [%] |
Precipitation [mm] |
| Present | Wind chill | Speed | Max |
| Qaanaaq | 04.09 10:00 | 4,4 | -0,4 | 7,4 ⇐ | 10,4 | 1006 | 64 | 0,0 |
| Kitsissut | 04.09 10:00 | 2,0 | -4,6 | 10,8 ⇖ | 17,5 | 1005 | 94 | n/a |
| Kitsissorsuit | 04.09 10:00 | 3,8 | -1,8 | 9,3 ⇖ | 10,3 | 1009 | 64 | n/a |
| Upernavik | 04.09 10:00 | 2,6 | 0,8 | 1,8 ⇙ | 2,9 | 999 | 76 | 0,0 |
| Qaarsut | 04.09 10:00 | 4,2 | -1,6 | 10,5 ⇖ | 12,7 | 1005 | 33 | 0,1 |
| Nuussuaq | 04.09 10:00 | 3,8 | 1,4 | 2,6 ⇖ | 3,6 | 1013 | 56 | n/a |
| Qeqertarsuaq | 04.09 10:00 | 4,0 | -1,1 | 8,0 ⇐ | 10,2 | 1015 | 56 | 0,0 |
| Ilulissat | 04.09 10:00 | 2,1 | -3,6 | 8,0 ⇐ | 10,8 | 1012 | 38 | 0,0 |
| Qasigiannguit | 04.09 10:30 | 4,7 | 2,8 | 2,1 ⇙ | 3,5 | 1013 | 55 | n/a |
| Aasiaat | 04.09 10:00 | 3,8 | 1,0 | 3,1 ⇙ | 5,4 | 1011 | 75 | 0,0 |
| Kangerlussuaq | 04.09 10:00 | 1,7 | -1,8 | 3,5 ⇙ | 4,4 | 1010 | 69 | n/a |
| Sisimiut | 04.09 10:00 | 6,4 | n/a | 0,5 ⇗ | 1,5 | 1014 | 62 | 0,0 |
| Maniitsoq | 04.09 10:00 | 6,3 | n/a | 0,8 ⇒ | 1,1 | 1010 | 82 | 0,0 |
| Sioralik | 04.09 10:00 | 7,4 | 4,3 | 5,1 ⇙ | 6,7 | 1012 | 67 | n/a |
| Niaqornaa | 04.09 09:00 | 5,3 | 2,3 | 3,8 ⇙ | 4,8 | 1006 | 68 | n/a |
| Qeqertannguaq | 04.09 10:30 | 6,7 | 6,0 | 1,4 ⇐ | 2,5 | n/a | 83 | n/a |
| Kapisillit | 04.09 10:00 | 4,0 | 0,5 | 4,2 ⇙ | 6,7 | 1004 | 84 | 0,0 |
| Kuanninnguit | 04.09 10:00 | 4,6 | 3,5 | 1,1 ⇑ | 2,4 | 1006 | 78 | n/a |
| Nuuk City | 04.09 10:30 | 5,9 | 2,7 | 4,4 ⇓ | 7,2 | 1002 | 64 | n/a |
| Ukiiviit | 04.09 10:00 | 4,3 | 2,0 | 2,6 ⇓ | 4,1 | 1008 | 100 | n/a |
| Paamiut | 04.09 10:00 | 2,8 | 1,6 | 1,3 ⇒ | 2,0 | 1006 | 100 | 0,0 |
| Narsarsuaq | 04.09 10:00 | 5,9 | n/a | 1,1 ⇙ | 1,7 | 1006 | 91 | n/a |
| Narsaq | 04.09 10:00 | 3,0 | n/a | 0,8 ⇒ | 1,5 | 1006 | 95 | 0,0 |
| Nunarsuit | 04.09 10:00 | 3,9 | -1,8 | 9,8 ⇘ | 13,4 | 1006 | 100 | n/a |
| Upernaviarsuk | 04.09 10:00 | 7,2 | n/a | 1,3 ⇘ | 2,8 | 1008 | 85 | n/a |
| Qaqortoq | 04.09 10:00 | 5,9 | 3,9 | 2,5 ⇗ | 4,3 | 1002 | 94 | 0,1 |
| Angisoq | 04.09 10:00 | 5,0 | 2,1 | 3,6 ⇗ | 4,1 | 1007 | 99 | n/a |
| Prins Christian Sund | 04.09 10:00 | 4,8 | 1,0 | 5,1 ⇓ | 8,2 | 998 | 79 | n/a |
| Nanortalik | 04.09 10:00 | 6,2 | n/a | 0,8 ⇐ | 1,5 | 1008 | 100 | n/a |
| Ikermiuarsuk | 04.09 10:00 | 3,7 | -0,1 | 4,6 ⇓ | 5,7 | 1005 | 75 | n/a |
| Ikermit | 04.09 10:00 | 1,8 | -4,4 | 9,3 ⇘ | 11,3 | 1000 | 46 | n/a |
| Kulusuk | 04.09 10:00 | 4,4 | 1,8 | 2,9 ⇒ | 3,8 | 1005 | 79 | n/a |
| Tasiilaq | 04.09 10:00 | 4,5 | n/a | 0,5 ⇘ | 1,6 | 1003 | 79 | 0,0 |
| Aputiteeq | 04.09 10:00 | 5,7 | 1,5 | 6,7 ⇙ | 11,3 | 1007 | 60 | n/a |
| Ittoqqortoormiit | 04.09 10:00 | 4,2 | -0,4 | 6,8 ⇙ | 9,7 | 1006 | 70 | n/a |
| Nerlerit Inaat | 04.09 10:00 | 5,2 | 1,2 | 6,0 ⇓ | 7,0 | 1014 | 65 | n/a |
| Daneborg | 04.09 10:00 | 2,2 | 0,0 | 2,0 ⇓ | 3,0 | 1012 | 53 | n/a |
| Zackenberg | 03.09 11:00 | 3,3 | n/a | 3,2 ⇐ | 6,1 | 1010 | 54 | 0,0 |
| Danmarkshavn | 04.09 10:00 | 1,5 | n/a | n/a | 6,0 | 1011 | 63 | n/a |
| Henrik Krøyer Holme | 04.09 10:00 | -3,1 | -5,4 | 2,0 ⇗ | 2,0 | 1010 | 95 | n/a |
| Station Nord | 04.09 10:00 | -2,4 | -4,6 | 2,0 ⇗ | 2,0 | 1006 | 84 | n/a |
| Kap Morris Jesup | 04.09 10:00 | -1,1 | -6,4 | 5,0 ⇒ | 7,0 | 1008 | 94 | n/a |
Advanced version ⤻
Data source - Operated by - Disclaimer ▼